sensor_id;sensor_type;location;lat;lon;timestamp;temperature;humidity
15217;DHT22;7711;46.634;14.318;2023-07-28T00:00:42;15.40;99.90
15217;DHT22;7711;46.634;14.318;2023-07-28T00:03:09;15.30;99.90
15217;DHT22;7711;46.634;14.318;2023-07-28T00:05:37;15.20;99.90
15217;DHT22;7711;46.634;14.318;2023-07-28T00:08:05;15.10;99.90
15217;DHT22;7711;46.634;14.318;2023-07-28T00:10:32;15.00;99.90
15217;DHT22;7711;46.634;14.318;2023-07-28T00:12:59;14.90;99.90
15217;DHT22;7711;46.634;14.318;2023-07-28T00:15:28;14.80;99.90
15217;DHT22;7711;46.634;14.318;2023-07-28T00:17:55;14.90;99.90
15217;DHT22;7711;46.634;14.318;2023-07-28T00:20:23;14.90;99.90
15217;DHT22;7711;46.634;14.318;2023-07-28T00:22:50;14.90;99.90
15217;DHT22;7711;46.634;14.318;2023-07-28T00:25:18;14.80;99.90
15217;DHT22;7711;46.634;14.318;2023-07-28T00:27:45;14.70;99.90
15217;DHT22;7711;46.634;14.318;2023-07-28T00:30:12;14.70;99.90
15217;DHT22;7711;46.634;14.318;2023-07-28T00:32:39;14.70;99.90
15217;DHT22;7711;46.634;14.318;2023-07-28T00:35:06;14.60;99.90
15217;DHT22;7711;46.634;14.318;2023-07-28T00:37:33;14.50;99.90
15217;DHT22;7711;46.634;14.318;2023-07-28T00:40:00;14.50;99.90
15217;DHT22;7711;46.634;14.318;2023-07-28T00:42:29;14.60;99.90
15217;DHT22;7711;46.634;14.318;2023-07-28T00:44:56;14.50;99.90
15217;DHT22;7711;46.634;14.318;2023-07-28T00:47:23;14.40;99.90
15217;DHT22;7711;46.634;14.318;2023-07-28T00:49:50;14.40;99.90
15217;DHT22;7711;46.634;14.318;2023-07-28T00:52:16;14.40;99.90
15217;DHT22;7711;46.634;14.318;2023-07-28T00:54:43;14.30;99.90
15217;DHT22;7711;46.634;14.318;2023-07-28T00:57:10;14.30;99.90
15217;DHT22;7711;46.634;14.318;2023-07-28T00:59:39;14.20;99.90
15217;DHT22;7711;46.634;14.318;2023-07-28T01:02:06;14.10;99.90
15217;DHT22;7711;46.634;14.318;2023-07-28T01:04:33;14.00;99.90
15217;DHT22;7711;46.634;14.318;2023-07-28T01:07:04;13.90;99.90
15217;DHT22;7711;46.634;14.318;2023-07-28T01:09:40;13.90;99.90
15217;DHT22;7711;46.634;14.318;2023-07-28T01:12:08;13.80;99.90
15217;DHT22;7711;46.634;14.318;2023-07-28T01:14:36;13.80;99.90
15217;DHT22;7711;46.634;14.318;2023-07-28T01:17:04;13.90;99.90
15217;DHT22;7711;46.634;14.318;2023-07-28T01:19:31;14.00;99.90
15217;DHT22;7711;46.634;14.318;2023-07-28T01:22:17;13.80;99.90
15217;DHT22;7711;46.634;14.318;2023-07-28T01:24:55;13.70;99.90
15217;DHT22;7711;46.634;14.318;2023-07-28T01:27:28;13.70;99.90
15217;DHT22;7711;46.634;14.318;2023-07-28T01:29:56;13.70;99.90
15217;DHT22;7711;46.634;14.318;2023-07-28T01:32:23;13.70;99.90
15217;DHT22;7711;46.634;14.318;2023-07-28T01:34:50;13.60;99.90
15217;DHT22;7711;46.634;14.318;2023-07-28T01:37:17;13.60;99.90
15217;DHT22;7711;46.634;14.318;2023-07-28T01:39:43;13.60;99.90
15217;DHT22;7711;46.634;14.318;2023-07-28T01:42:10;13.60;99.90
15217;DHT22;7711;46.634;14.318;2023-07-28T01:44:39;13.60;99.90
15217;DHT22;7711;46.634;14.318;2023-07-28T01:47:06;13.50;99.90
15217;DHT22;7711;46.634;14.318;2023-07-28T01:49:32;13.40;99.90
15217;DHT22;7711;46.634;14.318;2023-07-28T01:51:59;13.40;99.90
15217;DHT22;7711;46.634;14.318;2023-07-28T01:54:26;13.30;99.90
15217;DHT22;7711;46.634;14.318;2023-07-28T01:56:53;13.40;99.90
15217;DHT22;7711;46.634;14.318;2023-07-28T01:59:20;13.40;99.90
15217;DHT22;7711;46.634;14.318;2023-07-28T02:01:48;13.20;99.90
15217;DHT22;7711;46.634;14.318;2023-07-28T02:04:16;13.30;99.90
15217;DHT22;7711;46.634;14.318;2023-07-28T02:06:42;13.30;99.90
15217;DHT22;7711;46.634;14.318;2023-07-28T02:09:09;13.30;99.90
15217;DHT22;7711;46.634;14.318;2023-07-28T02:11:36;13.20;99.90
15217;DHT22;7711;46.634;14.318;2023-07-28T02:14:03;13.20;1.00
15217;DHT22;7711;46.634;14.318;2023-07-28T02:16:30;13.00;1.00
15217;DHT22;7711;46.634;14.318;2023-07-28T02:18:59;13.10;1.00
15217;DHT22;7711;46.634;14.318;2023-07-28T02:21:26;13.10;1.00
15217;DHT22;7711;46.634;14.318;2023-07-28T02:23:53;13.10;1.00
15217;DHT22;7711;46.634;14.318;2023-07-28T02:26:20;13.10;1.00
15217;DHT22;7711;46.634;14.318;2023-07-28T02:28:47;13.20;1.00
15217;DHT22;7711;46.634;14.318;2023-07-28T02:31:14;13.20;1.00
15217;DHT22;7711;46.634;14.318;2023-07-28T02:33:41;13.10;1.00
15217;DHT22;7711;46.634;14.318;2023-07-28T02:36:09;13.00;1.00
15217;DHT22;7711;46.634;14.318;2023-07-28T02:38:36;13.00;1.00
15217;DHT22;7711;46.634;14.318;2023-07-28T02:41:03;12.90;1.00
15217;DHT22;7711;46.634;14.318;2023-07-28T02:43:30;13.00;1.00
15217;DHT22;7711;46.634;14.318;2023-07-28T02:45:58;13.10;1.00
15217;DHT22;7711;46.634;14.318;2023-07-28T02:48:25;13.10;1.00
15217;DHT22;7711;46.634;14.318;2023-07-28T02:50:52;13.00;1.00
15217;DHT22;7711;46.634;14.318;2023-07-28T02:53:21;12.90;1.00
15217;DHT22;7711;46.634;14.318;2023-07-28T02:55:48;12.90;1.00
15217;DHT22;7711;46.634;14.318;2023-07-28T02:58:15;13.00;1.00
15217;DHT22;7711;46.634;14.318;2023-07-28T03:00:43;13.00;1.00
15217;DHT22;7711;46.634;14.318;2023-07-28T03:03:12;13.00;1.00
15217;DHT22;7711;46.634;14.318;2023-07-28T03:05:39;13.00;1.00
15217;DHT22;7711;46.634;14.318;2023-07-28T03:08:06;13.00;1.00
15217;DHT22;7711;46.634;14.318;2023-07-28T03:10:35;12.90;1.00
15217;DHT22;7711;46.634;14.318;2023-07-28T03:13:02;12.90;1.00
15217;DHT22;7711;46.634;14.318;2023-07-28T03:15:29;12.80;1.00
15217;DHT22;7711;46.634;14.318;2023-07-28T03:17:55;12.70;1.00
15217;DHT22;7711;46.634;14.318;2023-07-28T03:20:22;12.70;1.00
15217;DHT22;7711;46.634;14.318;2023-07-28T03:22:50;12.80;1.00
15217;DHT22;7711;46.634;14.318;2023-07-28T03:25:17;12.80;1.00
15217;DHT22;7711;46.634;14.318;2023-07-28T03:27:45;12.70;1.00
15217;DHT22;7711;46.634;14.318;2023-07-28T03:30:13;12.70;1.00
15217;DHT22;7711;46.634;14.318;2023-07-28T03:32:40;12.70;1.00
15217;DHT22;7711;46.634;14.318;2023-07-28T03:35:08;12.60;1.00
15217;DHT22;7711;46.634;14.318;2023-07-28T03:37:35;12.60;1.00
15217;DHT22;7711;46.634;14.318;2023-07-28T03:40:02;12.60;1.00
15217;DHT22;7711;46.634;14.318;2023-07-28T03:42:29;12.50;1.00
15217;DHT22;7711;46.634;14.318;2023-07-28T03:44:57;12.40;1.00
15217;DHT22;7711;46.634;14.318;2023-07-28T03:47:24;12.40;1.00
15217;DHT22;7711;46.634;14.318;2023-07-28T03:49:51;12.30;1.00
15217;DHT22;7711;46.634;14.318;2023-07-28T03:52:18;12.40;1.00
15217;DHT22;7711;46.634;14.318;2023-07-28T03:54:45;12.50;1.00
15217;DHT22;7711;46.634;14.318;2023-07-28T03:57:12;12.40;1.00
15217;DHT22;7711;46.634;14.318;2023-07-28T03:59:39;12.40;1.00
15217;DHT22;7711;46.634;14.318;2023-07-28T04:02:07;12.50;1.00
15217;DHT22;7711;46.634;14.318;2023-07-28T04:04:35;12.50;1.00
15217;DHT22;7711;46.634;14.318;2023-07-28T04:07:03;12.60;1.00
15217;DHT22;7711;46.634;14.318;2023-07-28T04:09:30;12.60;1.00
15217;DHT22;7711;46.634;14.318;2023-07-28T04:11:57;12.50;1.00
15217;DHT22;7711;46.634;14.318;2023-07-28T04:14:24;12.60;1.00
15217;DHT22;7711;46.634;14.318;2023-07-28T04:16:50;12.70;1.00
15217;DHT22;7711;46.634;14.318;2023-07-28T04:19:19;12.70;1.00
15217;DHT22;7711;46.634;14.318;2023-07-28T04:21:46;12.80;1.00
15217;DHT22;7711;46.634;14.318;2023-07-28T04:24:12;12.90;1.00
15217;DHT22;7711;46.634;14.318;2023-07-28T04:26:39;13.00;1.00
15217;DHT22;7711;46.634;14.318;2023-07-28T04:29:08;13.00;1.00
15217;DHT22;7711;46.634;14.318;2023-07-28T04:31:35;13.10;1.00
15217;DHT22;7711;46.634;14.318;2023-07-28T04:34:02;13.00;1.00
15217;DHT22;7711;46.634;14.318;2023-07-28T04:36:31;13.10;1.00
15217;DHT22;7711;46.634;14.318;2023-07-28T04:38:58;13.30;1.00
15217;DHT22;7711;46.634;14.318;2023-07-28T04:41:25;13.20;1.00
15217;DHT22;7711;46.634;14.318;2023-07-28T04:43:52;13.30;1.00
15217;DHT22;7711;46.634;14.318;2023-07-28T04:46:19;13.30;1.00
15217;DHT22;7711;46.634;14.318;2023-07-28T04:48:46;13.40;1.00
15217;DHT22;7711;46.634;14.318;2023-07-28T04:51:13;13.50;1.00
15217;DHT22;7711;46.634;14.318;2023-07-28T04:53:42;13.60;99.90
15217;DHT22;7711;46.634;14.318;2023-07-28T04:56:09;13.70;99.90
15217;DHT22;7711;46.634;14.318;2023-07-28T04:58:36;13.90;99.90
15217;DHT22;7711;46.634;14.318;2023-07-28T05:01:02;13.90;99.90
15217;DHT22;7711;46.634;14.318;2023-07-28T05:03:30;14.00;99.90
15217;DHT22;7711;46.634;14.318;2023-07-28T05:05:57;14.00;99.90
15217;DHT22;7711;46.634;14.318;2023-07-28T05:08:24;14.20;99.90
15217;DHT22;7711;46.634;14.318;2023-07-28T05:10:52;14.30;99.90
15217;DHT22;7711;46.634;14.318;2023-07-28T05:13:19;14.40;99.90
15217;DHT22;7711;46.634;14.318;2023-07-28T05:15:46;14.30;99.90
15217;DHT22;7711;46.634;14.318;2023-07-28T05:18:13;14.30;99.90
15217;DHT22;7711;46.634;14.318;2023-07-28T05:20:40;14.30;99.90
15217;DHT22;7711;46.634;14.318;2023-07-28T05:23:07;14.50;99.90
15217;DHT22;7711;46.634;14.318;2023-07-28T05:25:34;14.50;99.90
15217;DHT22;7711;46.634;14.318;2023-07-28T05:28:02;14.70;99.90
15217;DHT22;7711;46.634;14.318;2023-07-28T05:30:29;14.90;99.90
15217;DHT22;7711;46.634;14.318;2023-07-28T05:32:56;15.00;99.90
15217;DHT22;7711;46.634;14.318;2023-07-28T05:35:23;15.10;99.90
15217;DHT22;7711;46.634;14.318;2023-07-28T05:37:50;15.10;99.90
15217;DHT22;7711;46.634;14.318;2023-07-28T05:40:17;15.30;99.90
15217;DHT22;7711;46.634;14.318;2023-07-28T05:42:44;15.40;99.90
15217;DHT22;7711;46.634;14.318;2023-07-28T05:45:12;15.60;99.90
15217;DHT22;7711;46.634;14.318;2023-07-28T05:47:39;15.70;99.90
15217;DHT22;7711;46.634;14.318;2023-07-28T05:50:07;15.70;99.90
15217;DHT22;7711;46.634;14.318;2023-07-28T05:52:34;15.80;99.90
15217;DHT22;7711;46.634;14.318;2023-07-28T05:55:01;15.90;99.90
15217;DHT22;7711;46.634;14.318;2023-07-28T05:57:27;16.00;99.90
15217;DHT22;7711;46.634;14.318;2023-07-28T05:59:54;16.00;99.90
15217;DHT22;7711;46.634;14.318;2023-07-28T06:02:23;16.00;99.90
15217;DHT22;7711;46.634;14.318;2023-07-28T06:04:50;16.10;99.90
15217;DHT22;7711;46.634;14.318;2023-07-28T06:07:17;16.20;99.90
15217;DHT22;7711;46.634;14.318;2023-07-28T06:09:44;16.30;99.90
15217;DHT22;7711;46.634;14.318;2023-07-28T06:12:11;16.30;99.90
15217;DHT22;7711;46.634;14.318;2023-07-28T06:14:39;16.30;99.90
15217;DHT22;7711;46.634;14.318;2023-07-28T06:17:05;16.40;99.90
15217;DHT22;7711;46.634;14.318;2023-07-28T06:19:34;16.60;99.90
15217;DHT22;7711;46.634;14.318;2023-07-28T06:22:01;16.70;99.90
15217;DHT22;7711;46.634;14.318;2023-07-28T06:24:28;16.60;99.90
15217;DHT22;7711;46.634;14.318;2023-07-28T06:26:55;16.90;99.90
15217;DHT22;7711;46.634;14.318;2023-07-28T06:29:22;17.10;99.90
15217;DHT22;7711;46.634;14.318;2023-07-28T06:31:49;17.10;99.90
15217;DHT22;7711;46.634;14.318;2023-07-28T06:34:16;17.00;99.90
15217;DHT22;7711;46.634;14.318;2023-07-28T06:36:44;17.10;99.90
15217;DHT22;7711;46.634;14.318;2023-07-28T06:39:11;17.50;99.90
15217;DHT22;7711;46.634;14.318;2023-07-28T06:41:38;17.90;99.90
15217;DHT22;7711;46.634;14.318;2023-07-28T06:44:05;18.30;99.90
15217;DHT22;7711;46.634;14.318;2023-07-28T06:46:33;17.90;99.90
15217;DHT22;7711;46.634;14.318;2023-07-28T06:49:00;17.80;99.90
15217;DHT22;7711;46.634;14.318;2023-07-28T06:51:27;17.80;99.90
15217;DHT22;7711;46.634;14.318;2023-07-28T06:53:56;18.00;99.90
15217;DHT22;7711;46.634;14.318;2023-07-28T06:56:23;18.10;99.90
15217;DHT22;7711;46.634;14.318;2023-07-28T06:58:50;18.20;99.90
15217;DHT22;7711;46.634;14.318;2023-07-28T07:01:17;18.10;99.90
15217;DHT22;7711;46.634;14.318;2023-07-28T07:03:44;18.20;99.90
15217;DHT22;7711;46.634;14.318;2023-07-28T07:06:11;18.60;99.90
15217;DHT22;7711;46.634;14.318;2023-07-28T07:08:38;18.50;99.90
15217;DHT22;7711;46.634;14.318;2023-07-28T07:11:06;18.40;99.90
15217;DHT22;7711;46.634;14.318;2023-07-28T07:13:33;18.60;99.90
15217;DHT22;7711;46.634;14.318;2023-07-28T07:16:00;18.40;99.90
15217;DHT22;7711;46.634;14.318;2023-07-28T07:18:27;18.80;99.90
15217;DHT22;7711;46.634;14.318;2023-07-28T07:20:54;19.00;99.90
15217;DHT22;7711;46.634;14.318;2023-07-28T07:23:21;19.20;99.90
15217;DHT22;7711;46.634;14.318;2023-07-28T07:25:49;19.30;99.90
15217;DHT22;7711;46.634;14.318;2023-07-28T07:28:18;19.20;99.90
15217;DHT22;7711;46.634;14.318;2023-07-28T07:30:45;19.50;99.90
15217;DHT22;7711;46.634;14.318;2023-07-28T07:33:12;19.30;99.90
15217;DHT22;7711;46.634;14.318;2023-07-28T07:35:39;19.70;99.90
15217;DHT22;7711;46.634;14.318;2023-07-28T07:38:06;19.80;99.90
15217;DHT22;7711;46.634;14.318;2023-07-28T07:40:34;19.80;99.90
15217;DHT22;7711;46.634;14.318;2023-07-28T07:43:01;19.70;99.90
15217;DHT22;7711;46.634;14.318;2023-07-28T07:45:30;19.70;99.90
15217;DHT22;7711;46.634;14.318;2023-07-28T07:47:58;19.70;99.90
15217;DHT22;7711;46.634;14.318;2023-07-28T07:50:25;19.60;99.90
15217;DHT22;7711;46.634;14.318;2023-07-28T07:52:52;19.40;99.90
15217;DHT22;7711;46.634;14.318;2023-07-28T07:55:19;19.60;99.90
15217;DHT22;7711;46.634;14.318;2023-07-28T07:57:46;19.70;99.90
15217;DHT22;7711;46.634;14.318;2023-07-28T08:00:14;19.50;99.90
15217;DHT22;7711;46.634;14.318;2023-07-28T08:02:43;19.40;99.90
15217;DHT22;7711;46.634;14.318;2023-07-28T08:05:09;19.70;99.90
15217;DHT22;7711;46.634;14.318;2023-07-28T08:07:36;19.80;99.90
15217;DHT22;7711;46.634;14.318;2023-07-28T08:10:04;19.90;99.90
15217;DHT22;7711;46.634;14.318;2023-07-28T08:12:31;20.20;99.90
15217;DHT22;7711;46.634;14.318;2023-07-28T08:14:58;20.10;99.90
15217;DHT22;7711;46.634;14.318;2023-07-28T08:17:25;20.00;99.90
15217;DHT22;7711;46.634;14.318;2023-07-28T08:19:53;20.00;99.90
15217;DHT22;7711;46.634;14.318;2023-07-28T08:22:20;20.40;99.90
15217;DHT22;7711;46.634;14.318;2023-07-28T08:24:47;20.40;99.90
15217;DHT22;7711;46.634;14.318;2023-07-28T08:27:14;20.40;99.90
15217;DHT22;7711;46.634;14.318;2023-07-28T08:29:41;20.50;99.90
15217;DHT22;7711;46.634;14.318;2023-07-28T08:32:08;20.50;99.90
15217;DHT22;7711;46.634;14.318;2023-07-28T08:34:35;20.60;99.90
15217;DHT22;7711;46.634;14.318;2023-07-28T08:37:04;20.60;99.90
15217;DHT22;7711;46.634;14.318;2023-07-28T08:39:33;20.50;99.90
15217;DHT22;7711;46.634;14.318;2023-07-28T08:42:00;21.00;99.90
15217;DHT22;7711;46.634;14.318;2023-07-28T08:44:30;21.10;99.90
15217;DHT22;7711;46.634;14.318;2023-07-28T08:46:57;21.20;99.90
15217;DHT22;7711;46.634;14.318;2023-07-28T08:49:24;21.10;99.90
15217;DHT22;7711;46.634;14.318;2023-07-28T08:51:52;21.50;99.90
15217;DHT22;7711;46.634;14.318;2023-07-28T08:54:25;21.20;99.90
15217;DHT22;7711;46.634;14.318;2023-07-28T08:56:52;21.10;99.90
15217;DHT22;7711;46.634;14.318;2023-07-28T08:59:21;21.10;99.90
15217;DHT22;7711;46.634;14.318;2023-07-28T09:01:50;21.30;99.90
15217;DHT22;7711;46.634;14.318;2023-07-28T09:04:17;21.40;99.90
15217;DHT22;7711;46.634;14.318;2023-07-28T09:06:45;21.40;99.90
15217;DHT22;7711;46.634;14.318;2023-07-28T09:09:13;21.60;99.90
15217;DHT22;7711;46.634;14.318;2023-07-28T09:11:45;21.80;99.90
15217;DHT22;7711;46.634;14.318;2023-07-28T09:14:14;22.10;99.90
15217;DHT22;7711;46.634;14.318;2023-07-28T09:16:42;22.30;99.90
15217;DHT22;7711;46.634;14.318;2023-07-28T09:19:10;22.50;99.90
15217;DHT22;7711;46.634;14.318;2023-07-28T09:21:38;22.50;99.90
15217;DHT22;7711;46.634;14.318;2023-07-28T09:24:06;22.20;99.90
15217;DHT22;7711;46.634;14.318;2023-07-28T09:26:37;22.30;99.90
15217;DHT22;7711;46.634;14.318;2023-07-28T09:29:16;22.40;99.90
15217;DHT22;7711;46.634;14.318;2023-07-28T09:31:43;22.50;99.90
15217;DHT22;7711;46.634;14.318;2023-07-28T09:34:11;22.60;99.90
15217;DHT22;7711;46.634;14.318;2023-07-28T09:36:40;22.80;99.90
15217;DHT22;7711;46.634;14.318;2023-07-28T09:39:07;22.90;99.90
15217;DHT22;7711;46.634;14.318;2023-07-28T09:41:35;23.00;99.90
15217;DHT22;7711;46.634;14.318;2023-07-28T09:44:03;23.00;99.90
15217;DHT22;7711;46.634;14.318;2023-07-28T09:46:33;22.70;99.90
15217;DHT22;7711;46.634;14.318;2023-07-28T09:49:05;23.10;99.90
15217;DHT22;7711;46.634;14.318;2023-07-28T09:51:35;23.30;99.90
15217;DHT22;7711;46.634;14.318;2023-07-28T09:54:05;23.30;99.90
15217;DHT22;7711;46.634;14.318;2023-07-28T09:56:32;23.10;99.90
15217;DHT22;7711;46.634;14.318;2023-07-28T09:59:01;23.30;99.90
15217;DHT22;7711;46.634;14.318;2023-07-28T10:01:32;22.90;99.90
15217;DHT22;7711;46.634;14.318;2023-07-28T10:04:00;22.90;99.90
15217;DHT22;7711;46.634;14.318;2023-07-28T10:06:28;22.80;99.90
15217;DHT22;7711;46.634;14.318;2023-07-28T10:08:55;23.40;99.90
15217;DHT22;7711;46.634;14.318;2023-07-28T10:11:23;23.90;99.90
15217;DHT22;7711;46.634;14.318;2023-07-28T10:13:51;23.60;99.90
15217;DHT22;7711;46.634;14.318;2023-07-28T10:16:29;23.90;99.90
15217;DHT22;7711;46.634;14.318;2023-07-28T10:18:59;23.80;99.90
15217;DHT22;7711;46.634;14.318;2023-07-28T10:21:28;23.90;99.90
15217;DHT22;7711;46.634;14.318;2023-07-28T10:23:55;24.00;99.90
15217;DHT22;7711;46.634;14.318;2023-07-28T10:26:35;24.00;99.90
15217;DHT22;7711;46.634;14.318;2023-07-28T10:29:09;24.20;99.90
15217;DHT22;7711;46.634;14.318;2023-07-28T10:31:37;24.20;99.90
15217;DHT22;7711;46.634;14.318;2023-07-28T10:34:17;24.60;99.90
15217;DHT22;7711;46.634;14.318;2023-07-28T10:36:45;25.00;99.90
15217;DHT22;7711;46.634;14.318;2023-07-28T10:39:16;24.80;99.90
15217;DHT22;7711;46.634;14.318;2023-07-28T10:42:01;24.80;99.90
15217;DHT22;7711;46.634;14.318;2023-07-28T10:44:29;24.60;99.90
15217;DHT22;7711;46.634;14.318;2023-07-28T10:46:56;24.90;99.90
15217;DHT22;7711;46.634;14.318;2023-07-28T10:49:25;25.00;99.90
15217;DHT22;7711;46.634;14.318;2023-07-28T10:51:53;25.10;99.90
15217;DHT22;7711;46.634;14.318;2023-07-28T10:54:20;25.20;99.90
15217;DHT22;7711;46.634;14.318;2023-07-28T10:56:47;25.10;99.90
15217;DHT22;7711;46.634;14.318;2023-07-28T10:59:15;25.20;99.90
15217;DHT22;7711;46.634;14.318;2023-07-28T11:01:42;24.90;99.90
15217;DHT22;7711;46.634;14.318;2023-07-28T11:04:11;25.20;99.90
15217;DHT22;7711;46.634;14.318;2023-07-28T11:06:42;25.30;99.90
15217;DHT22;7711;46.634;14.318;2023-07-28T11:09:10;25.20;99.90
15217;DHT22;7711;46.634;14.318;2023-07-28T11:11:38;25.30;99.90
15217;DHT22;7711;46.634;14.318;2023-07-28T11:14:06;25.40;99.90
15217;DHT22;7711;46.634;14.318;2023-07-28T11:16:34;25.60;99.90
15217;DHT22;7711;46.634;14.318;2023-07-28T11:19:02;25.70;99.90
15217;DHT22;7711;46.634;14.318;2023-07-28T11:21:29;25.80;99.90
15217;DHT22;7711;46.634;14.318;2023-07-28T11:23:57;25.40;99.90
15217;DHT22;7711;46.634;14.318;2023-07-28T11:26:24;25.90;99.90
15217;DHT22;7711;46.634;14.318;2023-07-28T11:28:51;25.90;99.90
15217;DHT22;7711;46.634;14.318;2023-07-28T11:31:23;25.80;99.90
15217;DHT22;7711;46.634;14.318;2023-07-28T11:33:52;26.20;99.90
15217;DHT22;7711;46.634;14.318;2023-07-28T11:36:22;26.10;99.90
15217;DHT22;7711;46.634;14.318;2023-07-28T11:38:50;26.10;99.90
15217;DHT22;7711;46.634;14.318;2023-07-28T11:41:19;26.60;99.90
15217;DHT22;7711;46.634;14.318;2023-07-28T11:43:47;26.50;99.90
15217;DHT22;7711;46.634;14.318;2023-07-28T11:46:38;26.10;99.90
15217;DHT22;7711;46.634;14.318;2023-07-28T11:49:13;26.20;99.90
15217;DHT22;7711;46.634;14.318;2023-07-28T11:51:44;26.20;99.90
15217;DHT22;7711;46.634;14.318;2023-07-28T11:54:12;26.50;99.90
15217;DHT22;7711;46.634;14.318;2023-07-28T11:56:42;26.50;99.90
15217;DHT22;7711;46.634;14.318;2023-07-28T11:59:09;26.80;99.90
15217;DHT22;7711;46.634;14.318;2023-07-28T12:01:51;26.80;99.90
15217;DHT22;7711;46.634;14.318;2023-07-28T12:04:19;27.00;99.90
15217;DHT22;7711;46.634;14.318;2023-07-28T12:07:06;27.10;99.90
15217;DHT22;7711;46.634;14.318;2023-07-28T12:09:46;27.00;99.90
15217;DHT22;7711;46.634;14.318;2023-07-28T12:12:17;26.90;99.90
15217;DHT22;7711;46.634;14.318;2023-07-28T12:14:44;27.50;99.90
15217;DHT22;7711;46.634;14.318;2023-07-28T12:17:12;27.70;99.90
15217;DHT22;7711;46.634;14.318;2023-07-28T12:19:43;27.90;99.90
15217;DHT22;7711;46.634;14.318;2023-07-28T12:22:21;28.10;99.90
15217;DHT22;7711;46.634;14.318;2023-07-28T12:24:48;27.60;99.90
15217;DHT22;7711;46.634;14.318;2023-07-28T12:27:16;27.80;99.90
15217;DHT22;7711;46.634;14.318;2023-07-28T12:29:46;27.40;99.90
15217;DHT22;7711;46.634;14.318;2023-07-28T12:32:12;28.00;99.90
15217;DHT22;7711;46.634;14.318;2023-07-28T12:34:39;27.60;99.90
15217;DHT22;7711;46.634;14.318;2023-07-28T12:37:07;27.60;99.90
15217;DHT22;7711;46.634;14.318;2023-07-28T12:39:36;27.40;99.90
15217;DHT22;7711;46.634;14.318;2023-07-28T12:42:05;27.80;99.90
15217;DHT22;7711;46.634;14.318;2023-07-28T12:44:33;27.20;99.90
15217;DHT22;7711;46.634;14.318;2023-07-28T12:47:00;27.90;99.90
15217;DHT22;7711;46.634;14.318;2023-07-28T12:49:28;28.30;99.90
15217;DHT22;7711;46.634;14.318;2023-07-28T12:51:55;28.70;99.90
15217;DHT22;7711;46.634;14.318;2023-07-28T12:54:22;28.20;99.90
15217;DHT22;7711;46.634;14.318;2023-07-28T12:56:50;28.20;99.90
15217;DHT22;7711;46.634;14.318;2023-07-28T12:59:17;28.40;99.90
15217;DHT22;7711;46.634;14.318;2023-07-28T13:01:46;29.10;99.90
15217;DHT22;7711;46.634;14.318;2023-07-28T13:04:13;28.60;99.90
15217;DHT22;7711;46.634;14.318;2023-07-28T13:06:40;29.10;99.90
15217;DHT22;7711;46.634;14.318;2023-07-28T13:09:07;29.40;99.90
15217;DHT22;7711;46.634;14.318;2023-07-28T13:11:34;29.80;99.90
15217;DHT22;7711;46.634;14.318;2023-07-28T13:14:01;30.00;99.90
15217;DHT22;7711;46.634;14.318;2023-07-28T13:16:28;30.30;99.90
15217;DHT22;7711;46.634;14.318;2023-07-28T13:18:57;30.60;99.90
15217;DHT22;7711;46.634;14.318;2023-07-28T13:21:25;29.60;96.00
15217;DHT22;7711;46.634;14.318;2023-07-28T13:23:52;29.50;99.90
15217;DHT22;7711;46.634;14.318;2023-07-28T13:26:19;29.50;95.80
15217;DHT22;7711;46.634;14.318;2023-07-28T13:28:46;29.10;98.30
15217;DHT22;7711;46.634;14.318;2023-07-28T13:31:14;29.70;94.00
15217;DHT22;7711;46.634;14.318;2023-07-28T13:33:41;28.90;94.90
15217;DHT22;7711;46.634;14.318;2023-07-28T13:36:10;29.00;94.60
15217;DHT22;7711;46.634;14.318;2023-07-28T13:38:36;30.10;94.80
15217;DHT22;7711;46.634;14.318;2023-07-28T13:41:05;31.40;91.10
15217;DHT22;7711;46.634;14.318;2023-07-28T13:43:32;31.80;89.40
15217;DHT22;7711;46.634;14.318;2023-07-28T13:46:01;31.80;87.40
15217;DHT22;7711;46.634;14.318;2023-07-28T13:48:30;32.70;80.80
15217;DHT22;7711;46.634;14.318;2023-07-28T13:50:57;32.20;69.60
15217;DHT22;7711;46.634;14.318;2023-07-28T13:53:26;32.10;70.90
15217;DHT22;7711;46.634;14.318;2023-07-28T13:55:54;31.70;64.70
15217;DHT22;7711;46.634;14.318;2023-07-28T13:58:22;31.10;66.80
15217;DHT22;7711;46.634;14.318;2023-07-28T14:00:49;31.60;72.80
15217;DHT22;7711;46.634;14.318;2023-07-28T14:03:15;32.90;69.50
15217;DHT22;7711;46.634;14.318;2023-07-28T14:05:43;33.10;62.90
15217;DHT22;7711;46.634;14.318;2023-07-28T14:08:10;32.90;53.70
15217;DHT22;7711;46.634;14.318;2023-07-28T14:10:43;32.90;53.40
15217;DHT22;7711;46.634;14.318;2023-07-28T14:13:10;31.90;52.70
15217;DHT22;7711;46.634;14.318;2023-07-28T14:15:37;32.40;53.90
15217;DHT22;7711;46.634;14.318;2023-07-28T14:18:04;32.80;53.90
15217;DHT22;7711;46.634;14.318;2023-07-28T14:20:31;32.90;49.90
15217;DHT22;7711;46.634;14.318;2023-07-28T14:22:59;32.80;49.00
15217;DHT22;7711;46.634;14.318;2023-07-28T14:25:27;33.40;44.10
15217;DHT22;7711;46.634;14.318;2023-07-28T14:27:55;33.20;39.70
15217;DHT22;7711;46.634;14.318;2023-07-28T14:30:22;33.60;42.60
15217;DHT22;7711;46.634;14.318;2023-07-28T14:32:49;33.20;39.90
15217;DHT22;7711;46.634;14.318;2023-07-28T14:35:16;33.00;38.30
15217;DHT22;7711;46.634;14.318;2023-07-28T14:37:43;32.90;38.80
15217;DHT22;7711;46.634;14.318;2023-07-28T14:40:10;32.30;39.90
15217;DHT22;7711;46.634;14.318;2023-07-28T14:42:37;32.00;64.60
15217;DHT22;7711;46.634;14.318;2023-07-28T14:45:07;32.20;38.20
15217;DHT22;7711;46.634;14.318;2023-07-28T14:47:34;32.50;39.20
15217;DHT22;7711;46.634;14.318;2023-07-28T14:50:01;32.00;36.60
15217;DHT22;7711;46.634;14.318;2023-07-28T14:52:28;33.00;36.50
15217;DHT22;7711;46.634;14.318;2023-07-28T14:54:55;33.80;34.00
15217;DHT22;7711;46.634;14.318;2023-07-28T14:57:22;34.10;27.10
15217;DHT22;7711;46.634;14.318;2023-07-28T14:59:49;33.40;27.80
15217;DHT22;7711;46.634;14.318;2023-07-28T15:02:17;32.90;29.10
15217;DHT22;7711;46.634;14.318;2023-07-28T15:04:44;32.60;36.60
15217;DHT22;7711;46.634;14.318;2023-07-28T15:07:11;32.10;36.00
15217;DHT22;7711;46.634;14.318;2023-07-28T15:09:39;32.80;33.50
15217;DHT22;7711;46.634;14.318;2023-07-28T15:12:06;33.00;29.80
15217;DHT22;7711;46.634;14.318;2023-07-28T15:14:33;32.40;29.90
15217;DHT22;7711;46.634;14.318;2023-07-28T15:17:00;32.50;30.40
15217;DHT22;7711;46.634;14.318;2023-07-28T15:19:29;31.80;28.50
15217;DHT22;7711;46.634;14.318;2023-07-28T15:21:56;32.10;30.00
15217;DHT22;7711;46.634;14.318;2023-07-28T15:24:23;32.60;30.70
15217;DHT22;7711;46.634;14.318;2023-07-28T15:26:50;32.80;29.20
15217;DHT22;7711;46.634;14.318;2023-07-28T15:29:18;33.30;27.70
15217;DHT22;7711;46.634;14.318;2023-07-28T15:31:45;33.50;24.40
15217;DHT22;7711;46.634;14.318;2023-07-28T15:34:12;32.40;23.70
15217;DHT22;7711;46.634;14.318;2023-07-28T15:36:40;33.10;27.10